Location Weather   FltPlan.com
Note: Certified Weather is only available to Registered Users.    Weather Page Abbreviations

Metar Reports     TFR Flight Restrictions      LOOK-UP Abbreviations       Plain Text
Click here for more info on FltPlan Go!
KBID 230956Z AUTO 34004KT 10SM CLR 06/06 A3005 RMK AO2 SLP179 T00610056
KBID 230856Z AUTO 32003KT 6SM BR OVC047 06/06 A3002 RMK AO2 SLP169 T00560056 53004
KBID 230756Z AUTO 00000KT 3SM BR CLR 06/06 A3002 RMK AO2 SLP169 T00560056
KBID 230753Z AUTO 00000KT 3SM BR CLR 06/06 A3001 RMK AO2
KBID 230741Z AUTO 00000KT 1 3/4SM BR CLR 05/05 A3001 RMK AO2 VIS 1/2V4


Terminal Forecasts     LOOK-UP Abbreviations       Plain Text
Forecast For KBID Not Found

Using Forecast For KPVD
KPVD 230827Z 2308/2406 33004KT P6SM SKC
FM231400 35010KT P6SM SKC
FM231600 14006KT P6SM SKC
FM231800 18007KT P6SM SKC



RECENT NOTAMs (new or modified) from the last 12 hours     LOOK-UP Abbreviations  
  No NOTAMs were submitted for KBID in the last 12 hours

NOTAMS      TFR Flight Restrictions     LOOK-UP Abbreviations       Check Approach/Airway FDC Notams for:KBID  
(International notams may be incomplete)
BID 02/014 BID RWY 10/28 SAFETY AREA NOT STD SE 1702081504-PERM
BID 02/015 BID TWY A SAFETY AREA NORTH OF TWY C IRREGULAR SFC
            1702081430-1705081430EST
BID 02/017 BID TWY A SAFETY AREA WEST OF TWY B IRREGULAR SFC EAST
            EDGE 1702081500-1705081430EST



Nearby Departure Airport METARS
KGON 230956Z AUTO 34005KT 10SM CLR 07/03 A3004 RMK AO2 SLP173 T00670033
KPVD 230951Z 31005KT 10SM FEW020 SCT050 BKN250 07/03 A3003 RMK AO2 SLP169 T00670033
KEWB 230953Z AUTO 00000KT 10SM CLR 04/03 A3002 RMK AO2 SLP165 T00440033
KSFZ 230956Z AUTO 31005KT 10SM CLR 04/02 A3003 RMK AO2 SLP189 T00440022
KMVY 230953Z AUTO 01007KT 310V020 1 3/4SM BR FEW010 03/02 A3001 RMK AO2 SLP163 T00280017

KGON = GROTON-NEW LONDON GROTON CT
KMVY = MARTHAS VINEYARD VINEYARD HAV MA
KEWB = NEW BEDFORD RGNL NEW BEDFORD MA
KOQU = QUONSET STATE N.KINGSTOWN RI
KSFZ = NORTH CENTRAL STATE PAWTUCKET RI
KPVD = THEODORE FRANCIS GREEN STATE PROVIDENCE RI



GPS Notams     LOOK-UP Abbreviations  
GPS 04/104 ZAB NAV (SPAWAR GPS 17-01) GPS (INCLUDING WAAS, GBAS, AND
        ADS-B) MAY NOT BE AVBL WI A 395NM RADIUS CENTERED AT
        331743N1172806W (OCN311004) FL400-UNL,
        344NM RADIUS AT FL250,
        278NM RADTIJS AT 10000FT,
        227NM RADIUS AT 4000FT AGL,
        168NM RADIUS AT 50FT AGL.
        WED 1730-1830 2000-2129
        1704261730-1704262129

GPS 04/098 ZAB NAV (WSMR GPS 17-05) GPS (INCLUDING WAAS, GBAS, AND
        ADS-B) MAY NOT BE AVBL WI AN AREA DEFINED AS 380458N1081623W TO
        361180N1013327W TO 274604N1014446W TO 274259N1120005W TO
        335018N1122508W TO POINT OF ORIGN FL250-UNL;
        226NM RADIUS CENTERED AT 332811N1063917W (TCS062033) 10000FT,
        226NM RADIUS AT 4000FT AGL,
        164NM RADIUS AT 50FT AGL.
        DLY 1830-2230 1704231830-1704242230

GPS 04/100 ZFW NAV (WSMR GPS 17-05) GPS (INCLUDING WAAS, GBAS, AND
        ADS-B) MAY NOT BE AVBL WI AN AREA DEFINED AS 380458N1081623W TO
        361180N1013327W TO 274604N1014446W TO 274259N1120005W TO
        335018N1122508W TO POINT OF ORIGN FL250-UNL;
        226NM RADIUS CENTERED AT 332811N1063917W (TCS062033) 10000FT,
        226NM RADIUS AT 4000FT AGL,
        164NM RADIUS AT 50FT AGL.
        DLY 1830-2230 1704231830-1704242230

GPS 04/101 ZHU NAV (WSMR GPS 17-05) GPS (INCLUDING WAAS, GBAS, AND
        ADS-B) MAY NOT BE AVBL WI AN AREA DEFINED AS 380458N1081623W TO
        361180N1013327W TO 274604N1014446W TO 274259N1120005W TO
        335018N1122508W TO POINT OF ORIGN FL250-UNL;
        226NM RADIUS CENTERED AT 332811N1063917W (TCS062033) 10000FT,
        226NM RADIUS AT 4000FT AGL,
        164NM RADIUS AT 50FT AGL.
        DLY 1830-2230 1704231830-1704242230

GPS 04/089 ZSE NAV (NTTR GPS 17-06) GPS (INCLUDING WAAS, GBAS, AND
        ADS-B) MAY NOT BE AVAILABLE WI A 217NM RADIUS CENTERED AT
        371934N1154249W (BTY 045059) FL400-UNL DECREASING IN AREA WITH A
        DECREASE IN ALT DEFINED AS:
        177NM RADIUS AT FL250,
        107NM RADIUS AT 10000FT,
        105NM RADIUS AT 4000FT AGL,
        104NM RADIUS AT 50FT AGL.
        1704250745-1704250845

GPS 04/102 ZOA NAV (SPAWAR GPS 17-01) GPS (INCLUDING WAAS, GBAS, AND
        ADS-B) MAY NOT BE AVBL WI A 395NM RADIUS CENTERED AT
        331743N1172806W (OCN311004) FL400-UNL,
        344NM RADIUS AT FL250,
        278NM RADTIJS AT 10000FT,
        227NM RADIUS AT 4000FT AGL,
        168NM RADIUS AT 50FT AGL.
        WED 1730-1830 2000-2129
        1704261730-1704262129

GPS 04/088 ZOA NAV (NTTR GPS 17-06) GPS (INCLUDING WAAS, GBAS, AND
        ADS-B) MAY NOT BE AVAILABLE WI A 217NM RADIUS CENTERED AT
        371934N1154249W (BTY 045059) FL400-UNL DECREASING IN AREA WITH A
        DECREASE IN ALT DEFINED AS:
        177NM RADIUS AT FL250,
        107NM RADIUS AT 10000FT,
        105NM RADIUS AT 4000FT AGL,
        104NM RADIUS AT 50FT AGL.
        1704250745-1704250845

GPS 04/102 ZOA NAV (SPAWAR GPS 17-01) GPS (INCLUDING WAAS, GBAS, AND
        ADS-B) MAY NOT BE AVBL WI A 395NM RADIUS CENTERED AT
        331743N1172806W (OCN311004) FL400-UNL,
        344NM RADIUS AT FL250,
        278NM RADTIJS AT 10000FT,
        227NM RADIUS AT 4000FT AGL,
        168NM RADIUS AT 50FT AGL.
        WED 1730-1830 2000-2129
        1704261730-1704262129

GPS 04/088 ZOA NAV (NTTR GPS 17-06) GPS (INCLUDING WAAS, GBAS, AND
        ADS-B) MAY NOT BE AVAILABLE WI A 217NM RADIUS CENTERED AT
        371934N1154249W (BTY 045059) FL400-UNL DECREASING IN AREA WITH A
        DECREASE IN ALT DEFINED AS:
        177NM RADIUS AT FL250,
        107NM RADIUS AT 10000FT,
        105NM RADIUS AT 4000FT AGL,
        104NM RADIUS AT 50FT AGL.
        1704250745-1704250845

GPS 04/103 ZLA NAV (SPAWAR GPS 17-01) GPS (INCLUDING WAAS, GBAS, AND
        ADS-B) MAY NOT BE AVBL WI A 395NM RADIUS CENTERED AT
        331743N1172806W (OCN311004) FL400-UNL,
        344NM RADIUS AT FL250,
        278NM RADTIJS AT 10000FT,
        227NM RADIUS AT 4000FT AGL,
        168NM RADIUS AT 50FT AGL.
        WED 1730-1830 2000-2129
        1704261730-1704262129

GPS 04/086 ZLA NAV (NTTR GPS 17-06) GPS (INCLUDING WAAS, GBAS, AND
        ADS-B) MAY NOT BE AVAILABLE WI A 217NM RADIUS CENTERED AT
        371934N1154249W (BTY 045059) FL400-UNL DECREASING IN AREA WITH A
        DECREASE IN ALT DEFINED AS:
        177NM RADIUS AT FL250,
        107NM RADIUS AT 10000FT,
        105NM RADIUS AT 4000FT AGL,
        104NM RADIUS AT 50FT AGL.
        1704250745-1704250845

GPS 04/105 ZDV NAV (SPAWAR GPS 17-01) GPS (INCLUDING WAAS, GBAS, AND
        ADS-B) MAY NOT BE AVBL WI A 395NM RADIUS CENTERED AT
        331743N1172806W (OCN311004) FL400-UNL,
        344NM RADIUS AT FL250,
        278NM RADTIJS AT 10000FT,
        227NM RADIUS AT 4000FT AGL,
        168NM RADIUS AT 50FT AGL.
        WED 1730-1830 2000-2129
        1704261730-1704262129

GPS 04/096 ZDV NAV (SPAWAR GPS 17-01) GPS (INCLUDING WAAS, GBAS, AND
        ADS-B) MAY NOT BE AVBL WI A 395NM RADIUS CENTERED AT
        331743N1172806W (OCN 311004) FL400-UNL,
        344NM RADIUS AT FL250,
        278NM RADTIJS AT 10000FT,
        227NM RADIUS AT 4000FT AGL,
        168NM RADIUS AT 50FT AGL.
        1704251630-1704252229

GPS 04/106 ZLC NAV (SPAWAR GPS 17-01) GPS (INCLUDING WAAS, GBAS, AND
        ADS-B) MAY NOT BE AVBL WI A 395NM RADIUS CENTERED AT
        331743N1172806W (OCN311004) FL400-UNL,
        344NM RADIUS AT FL250,
        278NM RADTIJS AT 10000FT,
        227NM RADIUS AT 4000FT AGL,
        168NM RADIUS AT 50FT AGL.
        WED 1730-1830 2000-2129
        1704261730-1704262129

GPS 04/087 ZLC NAV (NTTR GPS 17-06) GPS (INCLUDING WAAS, GBAS, AND
        ADS-B) MAY NOT BE AVAILABLE WI A 217NM RADIUS CENTERED AT
        371934N1154249W (BTY 045059) FL400-UNL DECREASING IN AREA WITH A
        DECREASE IN ALT DEFINED AS:
        177NM RADIUS AT FL250,
        107NM RADIUS AT 10000FT,
        105NM RADIUS AT 4000FT AGL,
        104NM RADIUS AT 50FT AGL.
        1704250745-1704250845

GPS 03/031 GPS NAV PRN 11 OUT OF SERVICE 1703161305-1803161400